Time;durP1;ratioP1;P1;durP2;ratioP2;P2;SDS_P1;SDS_P2;PMS_P1;PMS_P2;Temp;Humidity;BMP_temperature;BMP_pressure;BME280_temperature;BME280_humidity;BME280_pressure;Samples;Min_cycle;Max_cycle;Signal;HPM_P1;HPM_P2
2022/01/20 00:00:00;;;;;;;33.95;6.85;;;;;;;1.71;100.00;102342.53;6503798;23;20004;-77
2022/01/20 00:02:35;;;;;;;31.23;7.07;;;;;;;1.69;100.00;102333.88;6504126;23;20299;-76
2022/01/20 00:05:24;;;;;;;33.38;6.95;;;;;;;1.72;100.00;102336.56;6503995;23;20429;-77
2022/01/20 00:27:35;;;;;;;41.63;7.35;;;;;;;1.40;100.00;102345.25;6502997;23;20008;-77
2022/01/20 00:30:37;;;;;;;32.40;8.30;;;;;;;1.31;100.00;102343.13;6503488;23;20303;-76
2022/01/20 00:38:30;;;;;;;43.53;7.88;;;;;;;1.35;100.00;102349.28;6503336;23;20350;-76
2022/01/20 00:41:03;;;;;;;40.53;7.77;;;;;;;1.39;100.00;102349.53;6503645;23;20004;-76
2022/01/20 00:43:34;;;;;;;37.33;9.18;;;;;;;1.42;100.00;102359.09;6503497;23;20008;-74
2022/01/20 00:46:06;;;;;;;37.83;7.83;;;;;;;1.46;100.00;102355.84;6503265;23;20012;-78
2022/01/20 00:48:37;;;;;;;41.73;7.70;;;;;;;1.47;100.00;102346.47;6503218;23;20089;-75
2022/01/20 00:51:09;;;;;;;33.53;6.70;;;;;;;1.45;100.00;102331.84;6502915;23;20005;-75
2022/01/20 00:53:44;;;;;;;35.73;7.93;;;;;;;1.47;100.00;102338.75;6503207;23;20016;-76
2022/01/20 00:56:15;;;;;;;46.38;8.70;;;;;;;1.49;100.00;102332.00;6503445;23;20371;-77
2022/01/20 00:58:46;;;;;;;43.30;9.97;;;;;;;1.55;100.00;102338.31;6503206;23;20027;-76
2022/01/20 01:01:18;;;;;;;32.33;7.17;;;;;;;1.64;100.00;102346.50;6503481;23;20031;-76
2022/01/20 01:03:49;;;;;;;44.37;8.10;;;;;;;1.72;100.00;102351.09;6503194;23;19996;-76
2022/01/20 01:08:54;;;;;;;35.88;7.72;;;;;;;1.86;100.00;102356.94;6503489;23;20306;-77
2022/01/20 01:11:26;;;;;;;28.10;6.43;;;;;;;1.97;100.00;102363.47;6503228;23;20011;-77
2022/01/20 01:13:59;;;;;;;22.97;6.23;;;;;;;2.08;100.00;102367.44;6475895;23;20382;-75
2022/01/20 01:24:51;;;;;;;25.33;5.07;;;;;;;2.10;100.00;102376.09;6406229;23;20014;-76
2022/01/20 01:27:24;;;;;;;23.80;4.85;;;;;;;2.11;100.00;102377.88;6406021;23;20009;-75
2022/01/20 01:35:24;;;;;;;29.50;6.75;;;;;;;2.10;100.00;102372.66;6347367;23;20036;-76
2022/01/20 01:40:29;;;;;;;29.97;5.43;;;;;;;2.06;100.00;102376.78;6345616;23;20014;-75
2022/01/20 01:43:06;;;;;;;23.75;4.35;;;;;;;2.06;100.00;102373.31;6345123;23;20011;-78
2022/01/20 01:45:40;;;;;;;29.80;5.55;;;;;;;2.14;100.00;102370.31;6345191;23;20017;-78
2022/01/20 01:48:11;;;;;;;23.30;5.18;;;;;;;2.16;100.00;102375.53;6345119;23;20006;-76
2022/01/20 01:50:42;;;;;;;23.50;5.63;;;;;;;2.23;100.00;102377.56;6345091;23;20017;-75
2022/01/20 01:53:16;;;;;;;26.67;5.33;;;;;;;2.26;100.00;102379.41;6345090;23;20014;-76
2022/01/20 01:55:47;;;;;;;19.95;6.18;;;;;;;2.22;100.00;102373.22;6345235;23;20006;-75
2022/01/20 01:58:19;;;;;;;28.03;6.13;;;;;;;2.21;100.00;102378.28;6346539;23;20010;-75
2022/01/20 02:00:50;;;;;;;25.73;4.93;;;;;;;2.17;100.00;102382.41;6346944;23;20006;-75
2022/01/20 02:03:24;;;;;;;22.47;5.27;;;;;;;2.17;100.00;102378.16;6347073;23;20029;-75
2022/01/20 02:08:39;;;;;;;25.92;5.40;;;;;;;2.09;100.00;102373.44;6347207;23;20014;-74
2022/01/20 02:19:48;;;;;;;33.05;5.15;;;;;;;2.16;100.00;102381.53;6441605;23;20331;-75
2022/01/20 02:22:19;;;;;;;22.23;4.20;;;;;;;2.28;100.00;102385.50;6441513;23;20084;-74
2022/01/20 02:24:50;;;;;;;15.50;4.13;;;;;;;2.36;100.00;102391.88;6441592;23;20040;-74
2022/01/20 02:27:22;;;;;;;21.20;4.70;;;;;;;2.43;100.00;102391.38;6441652;23;20005;-75
2022/01/20 02:29:53;;;;;;;18.27;3.43;;;;;;;2.51;100.00;102394.28;6441097;23;20337;-76
2022/01/20 02:32:29;;;;;;;13.60;3.30;;;;;;;2.61;100.00;102388.75;6441442;23;20415;-76
2022/01/20 02:35:02;;;;;;;26.77;4.45;;;;;;;2.70;100.00;102390.84;6487409;23;20073;-76
2022/01/20 02:37:34;;;;;;;21.08;5.53;;;;;;;2.69;100.00;102374.53;6504417;23;20094;-76
2022/01/20 02:45:45;;;;;;;20.85;3.42;;;;;;;2.66;100.00;102369.25;6504195;23;20083;-76
2022/01/20 02:48:17;;;;;;;14.70;3.07;;;;;;;2.67;100.00;102370.13;6504466;23;20027;-76
2022/01/20 02:50:49;;;;;;;15.40;2.97;;;;;;;2.74;100.00;102372.16;6504858;23;20107;-75
2022/01/20 02:53:20;;;;;;;17.00;3.30;;;;;;;2.76;100.00;102383.41;6505887;23;20023;-75
2022/01/20 02:55:52;;;;;;;19.77;4.63;;;;;;;2.79;100.00;102380.09;6504905;23;20011;-75
2022/01/20 02:58:24;;;;;;;21.50;4.03;;;;;;;2.73;100.00;102376.41;6504084;23;20004;-75
2022/01/20 03:00:58;;;;;;;22.60;4.00;;;;;;;2.63;100.00;102368.22;6504006;23;20099;-75
2022/01/20 03:03:29;;;;;;;20.50;4.45;;;;;;;2.61;100.00;102359.53;6504446;23;20467;-76
2022/01/20 03:06:01;;;;;;;18.40;3.37;;;;;;;2.51;100.00;102364.28;6506930;23;20008;-76
2022/01/20 03:08:34;;;;;;;22.25;4.30;;;;;;;2.47;100.00;102352.06;6506162;23;20031;-76
2022/01/20 03:11:05;;;;;;;18.20;3.70;;;;;;;2.45;100.00;102353.72;6505392;23;20071;-77
2022/01/20 03:13:37;;;;;;;20.43;3.57;;;;;;;2.41;100.00;102349.22;6505070;23;20081;-75
2022/01/20 03:16:08;;;;;;;22.77;3.90;;;;;;;2.38;100.00;102364.50;6505918;23;20004;-75
2022/01/20 03:18:39;;;;;;;24.87;5.20;;;;;;;2.34;100.00;102370.34;6505118;23;20000;-77
2022/01/20 03:21:11;;;;;;;18.77;3.93;;;;;;;2.28;100.00;102355.50;6505095;23;20006;-76
2022/01/20 03:23:42;;;;;;;22.67;3.77;;;;;;;2.13;100.00;102352.22;6505302;23;20037;-77
2022/01/20 03:26:14;;;;;;;22.73;4.20;;;;;;;2.04;100.00;102339.78;6506051;23;20008;-77
2022/01/20 03:28:45;;;;;;;25.17;3.83;;;;;;;2.02;100.00;102344.00;6505026;23;20000;-76
2022/01/20 03:31:18;;;;;;;20.87;4.07;;;;;;;1.97;100.00;102340.31;6505216;23;20000;-75
2022/01/20 03:33:50;;;;;;;22.92;5.03;;;;;;;1.94;100.00;102343.63;6478217;23;20027;-75
2022/01/20 03:36:22;;;;;;;20.90;5.07;;;;;;;1.89;100.00;102345.09;6505902;23;20000;-77
2022/01/20 03:38:55;;;;;;;21.52;5.05;;;;;;;1.91;100.00;102337.44;6479261;23;20374;-77
2022/01/20 03:41:26;;;;;;;25.52;4.05;;;;;;;1.88;100.00;102334.72;6506894;23;20008;-77
2022/01/20 03:43:58;;;;;;;22.60;5.20;;;;;;;1.79;100.00;102345.47;6506187;23;20064;-76
2022/01/20 03:46:48;;;;;;;21.03;4.83;;;;;;;1.80;100.00;102350.69;6505698;23;20508;-78
2022/01/20 03:49:28;;;;;;;16.02;4.47;;;;;;;1.89;100.00;102341.66;6507182;23;20004;-77
2022/01/20 03:51:59;;;;;;;25.13;4.68;;;;;;;1.91;100.00;102345.16;6505346;23;20000;-76
2022/01/20 03:54:31;;;;;;;19.80;6.23;;;;;;;1.88;100.00;102347.59;6506160;23;20100;-77
2022/01/20 03:57:03;;;;;;;23.20;5.37;;;;;;;1.85;100.00;102332.88;6508333;23;20079;-77
2022/01/20 03:59:34;;;;;;;22.07;4.93;;;;;;;1.88;100.00;102340.75;6507270;23;20027;-76
2022/01/20 04:02:05;;;;;;;18.07;3.97;;;;;;;1.88;100.00;102338.19;6506309;23;20023;-76
2022/01/20 04:04:37;;;;;;;25.83;4.57;;;;;;;1.81;100.00;102339.56;6506126;23;19996;-77
2022/01/20 04:07:09;;;;;;;21.63;5.10;;;;;;;1.80;100.00;102339.50;6505122;23;20004;-77
2022/01/20 04:09:41;;;;;;;22.63;5.63;;;;;;;1.75;100.00;102343.53;6511970;23;20078;-77
2022/01/20 04:12:12;;;;;;;16.97;4.40;;;;;;;1.80;100.00;102347.22;6505126;23;20047;-78
2022/01/20 04:14:48;;;;;;;22.63;4.40;;;;;;;1.84;100.00;102356.84;6506115;23;20083;-78
2022/01/20 04:17:21;;;;;;;17.63;2.88;;;;;;;1.89;100.00;102355.38;6506403;23;20015;-76
2022/01/20 04:19:52;;;;;;;;;;;;;;;1.91;100.00;102358.91;6507198;23;20011;-76
2022/01/20 04:22:24;;;;;;;27.50;5.85;;;;;;;1.99;100.00;102348.97;6509150;23;19911;-76
2022/01/20 04:24:56;;;;;;;17.92;3.63;;;;;;;2.06;100.00;102358.78;6509429;23;20011;-77
2022/01/20 04:27:27;;;;;;;24.63;4.53;;;;;;;2.11;100.00;102366.69;6509500;23;20008;-76
2022/01/20 04:29:59;;;;;;;20.40;3.90;;;;;;;2.13;100.00;102376.25;6510036;23;20004;-77
2022/01/20 04:32:31;;;;;;;21.07;4.00;;;;;;;2.17;100.00;102373.03;6510592;23;20038;-77
2022/01/20 04:35:03;;;;;;;;;;;;;;;2.20;100.00;102377.41;6476293;23;20063;-77
2022/01/20 04:37:35;;;;;;;20.25;4.75;;;;;;;2.23;100.00;102392.13;6479553;23;19908;-76
2022/01/20 04:40:07;;;;;;;25.92;5.70;;;;;;;2.21;100.00;102411.72;6478476;23;20413;-77
2022/01/20 04:42:42;;;;;;;23.67;6.80;;;;;;;2.16;100.00;102394.41;6477181;23;20019;-77
2022/01/20 04:45:21;;;;;;;17.30;4.43;;;;;;;2.21;100.00;102380.84;6478041;23;20236;-78
2022/01/20 04:48:12;;;;;;;25.67;4.55;;;;;;;2.18;100.00;102377.34;6475201;23;20009;-76
2022/01/20 04:59:13;;;;;;;17.45;4.03;;;;;;;2.31;100.00;102391.66;6474611;23;20338;-78
2022/01/20 05:01:46;;;;;;;19.37;5.40;;;;;;;2.34;100.00;102401.22;6472885;23;20012;-78
2022/01/20 05:04:17;;;;;;;24.15;5.05;;;;;;;2.35;100.00;102403.88;6474906;23;20437;-77
2022/01/20 05:06:52;;;;;;;18.13;4.60;;;;;;;2.35;100.00;102413.28;6474007;23;20001;-78
2022/01/20 05:09:24;;;;;;;22.15;4.55;;;;;;;2.37;100.00;102421.97;6475056;23;20104;-77
2022/01/20 05:12:02;;;;;;;24.23;4.80;;;;;;;2.41;100.00;102417.84;6474716;23;20020;-78
2022/01/20 05:14:34;;;;;;;20.65;4.18;;;;;;;2.41;100.00;102421.28;6475533;23;20012;-78
2022/01/20 05:17:06;;;;;;;25.57;5.53;;;;;;;2.43;100.00;102426.50;6475390;23;20001;-77
2022/01/20 05:19:39;;;;;;;26.58;6.05;;;;;;;2.49;100.00;102417.38;6474980;23;20083;-78
2022/01/20 05:22:10;;;;;;;;;;;;;;;2.49;100.00;102434.53;6472658;23;20020;-78
2022/01/20 05:24:41;;;;;;;24.27;5.38;;;;;;;2.48;100.00;102440.47;6473342;23;19927;-76
2022/01/20 05:27:13;;;;;;;23.10;4.90;;;;;;;2.50;100.00;102436.28;6473115;23;20004;-76
2022/01/20 05:29:44;;;;;;;23.40;6.57;;;;;;;2.54;100.00;102441.66;6473753;23;20466;-78
2022/01/20 05:32:16;;;;;;;22.53;5.73;;;;;;;2.50;100.00;102439.75;6473728;23;20084;-77
2022/01/20 05:34:48;;;;;;;26.08;4.88;;;;;;;2.51;100.00;102444.09;6493046;23;20302;-79
2022/01/20 05:37:19;;;;;;;18.53;3.87;;;;;;;2.53;100.00;102437.31;6506082;23;20000;-78
2022/01/20 05:39:51;;;;;;;26.00;5.73;;;;;;;2.59;100.00;102451.28;6506307;23;20015;-78
2022/01/20 05:42:22;;;;;;;22.33;4.53;;;;;;;2.62;100.00;102466.88;6506758;23;20106;-78
2022/01/20 05:44:54;;;;;;;20.97;5.00;;;;;;;2.58;100.00;102465.84;6506807;23;20035;-77
2022/01/20 05:47:28;;;;;;;7.83;2.10;;;;;;;2.47;100.00;102455.03;6479299;23;20061;-78
2022/01/20 05:49:59;;;;;;;14.23;3.03;;;;;;;2.41;100.00;102467.63;6507061;23;20371;-78
2022/01/20 05:52:31;;;;;;;15.03;3.43;;;;;;;2.34;100.00;102466.44;6506548;23;20015;-78
2022/01/20 05:55:02;;;;;;;17.20;3.23;;;;;;;2.30;100.00;102476.50;6506624;23;19996;-77
2022/01/20 05:57:34;;;;;;;16.70;3.87;;;;;;;2.26;100.00;102484.91;6506570;23;20425;-77
2022/01/20 06:00:08;;;;;;;21.43;4.60;;;;;;;2.24;100.00;102491.66;6505869;23;20042;-77
2022/01/20 06:05:32;;;;;;;13.35;3.17;;;;;;;2.27;100.00;102491.78;6379479;23;20113;-78
2022/01/20 06:08:06;;;;;;;15.53;3.47;;;;;;;2.29;100.00;102500.50;6379695;23;20077;-77
2022/01/20 06:10:37;;;;;;;17.52;3.47;;;;;;;2.29;100.00;102501.38;6356888;23;20024;-76
2022/01/20 06:13:08;;;;;;;18.87;3.37;;;;;;;2.29;100.00;102506.50;6383684;23;20010;-77
2022/01/20 06:15:41;;;;;;;15.00;3.17;;;;;;;2.30;100.00;102499.66;6397655;23;20029;-77
2022/01/20 06:18:15;;;;;;;20.88;4.07;;;;;;;2.31;100.00;102510.03;6376049;23;20028;-77
2022/01/20 06:20:47;;;;;;;17.77;3.80;;;;;;;2.30;100.00;102509.97;6398760;23;20017;-78
2022/01/20 06:23:19;;;;;;;;;;;;;;;2.31;100.00;102512.63;6396881;23;20010;-77
2022/01/20 06:25:51;;;;;;;15.68;2.90;;;;;;;2.30;100.00;102518.59;6398086;23;19940;-76
2022/01/20 06:28:23;;;;;;;22.52;5.32;;;;;;;2.28;100.00;102533.03;6405068;23;20038;-76
2022/01/20 06:30:54;;;;;;;24.33;3.93;;;;;;;2.26;100.00;102531.22;6405447;23;20095;-77
2022/01/20 06:33:25;;;;;;;23.17;4.47;;;;;;;2.27;100.00;102543.25;6405189;23;20006;-78
2022/01/20 06:35:57;;;;;;;19.63;4.13;;;;;;;2.29;100.00;102531.38;6403224;23;20061;-78
2022/01/20 06:38:29;;;;;;;25.33;5.33;;;;;;;2.31;100.00;102537.47;6405292;23;20029;-77
2022/01/20 06:41:00;;;;;;;20.57;5.13;;;;;;;2.27;100.00;102538.13;6405671;23;20022;-78
2022/01/20 06:43:31;;;;;;;18.40;3.97;;;;;;;2.27;100.00;102539.03;6519788;22;20040;-78
2022/01/20 06:46:03;;;;;;;24.73;4.93;;;;;;;2.25;100.00;102539.75;6532222;22;20022;-76
2022/01/20 06:48:34;;;;;;;24.53;4.27;;;;;;;2.21;100.00;102541.28;6532155;22;20000;-78
2022/01/20 06:51:05;;;;;;;20.40;4.27;;;;;;;2.23;100.00;102546.50;6532422;22;20022;-78
2022/01/20 06:53:37;;;;;;;23.17;4.97;;;;;;;2.24;99.49;102554.31;6532509;22;20015;-77
2022/01/20 06:56:08;;;;;;;23.30;4.60;;;;;;;2.26;99.30;102568.13;6528656;23;20007;-78
2022/01/20 06:58:40;;;;;;;20.60;4.47;;;;;;;2.26;99.37;102574.97;6526344;23;19992;-78
2022/01/20 07:01:11;;;;;;;20.80;3.57;;;;;;;2.24;98.78;102585.19;6526567;23;20004;-77
2022/01/20 07:03:42;;;;;;;22.23;4.93;;;;;;;2.25;98.06;102579.22;6523552;23;20003;-78
2022/01/20 07:06:14;;;;;;;24.73;5.03;;;;;;;2.24;97.80;102581.69;6514931;23;20027;-78
2022/01/20 07:08:45;;;;;;;29.60;4.40;;;;;;;2.22;97.48;102589.34;6511458;23;20004;-78
2022/01/20 07:11:17;;;;;;;34.13;6.40;;;;;;;2.10;98.01;102586.16;6511300;23;20008;-77
2022/01/20 07:13:48;;;;;;;29.57;4.53;;;;;;;2.07;97.77;102589.47;6510191;23;20008;-78
2022/01/20 07:16:20;;;;;;;25.33;5.90;;;;;;;2.08;97.23;102596.38;6513233;23;20004;-79
2022/01/20 07:18:51;;;;;;;20.03;4.33;;;;;;;2.11;96.33;102596.53;6484853;23;20008;-79
2022/01/20 07:21:23;;;;;;;21.73;4.63;;;;;;;2.12;96.59;102594.84;6516647;23;20086;-76
2022/01/20 07:23:55;;;;;;;25.03;4.73;;;;;;;2.07;97.20;102592.03;6514719;23;20043;-78
2022/01/20 07:26:26;;;;;;;24.57;5.80;;;;;;;2.00;97.59;102602.81;6510959;23;20011;-78
2022/01/20 07:28:58;;;;;;;23.57;4.67;;;;;;;2.01;96.79;102612.28;6511269;23;20028;-76
2022/01/20 07:31:31;;;;;;;25.57;5.13;;;;;;;2.03;96.85;102615.84;6508700;23;20004;-81
2022/01/20 07:34:04;;;;;;;19.08;4.28;;;;;;;2.08;95.10;102610.94;6481876;23;20103;-79
2022/01/20 07:36:35;;;;;;;28.63;5.60;;;;;;;2.12;95.34;102626.59;6507411;23;20000;-78
2022/01/20 07:39:07;;;;;;;31.10;5.53;;;;;;;2.12;95.27;102625.72;6506513;23;20311;-79
2022/01/20 07:41:39;;;;;;;25.87;5.57;;;;;;;2.13;94.84;102628.38;6480475;23;20008;-78
2022/01/20 07:44:10;;;;;;;23.30;4.97;;;;;;;2.13;94.87;102628.38;6507890;23;20094;-79
2022/01/20 07:46:42;;;;;;;27.20;7.83;;;;;;;2.14;94.31;102630.16;6510085;23;20015;-78
2022/01/20 07:49:15;;;;;;;28.13;5.97;;;;;;;2.14;94.40;102630.16;6509111;23;20008;-78
2022/01/20 07:51:46;;;;;;;22.08;5.32;;;;;;;2.17;93.80;102632.88;6509544;23;20024;-78
2022/01/20 07:54:21;;;;;;;18.57;4.57;;;;;;;2.17;93.77;102640.59;6508916;23;20062;-78
2022/01/20 07:56:52;;;;;;;19.42;4.32;;;;;;;2.18;94.03;102644.91;6510846;23;20031;-77
2022/01/20 07:59:24;;;;;;;28.87;6.27;;;;;;;2.20;93.76;102652.72;6510513;23;20052;-77
2022/01/20 08:01:56;;;;;;;31.05;6.68;;;;;;;2.21;93.65;102658.75;6483129;23;20000;-77
2022/01/20 08:04:27;;;;;;;26.07;6.43;;;;;;;2.22;92.66;102652.78;6509763;23;20027;-78
2022/01/20 08:06:59;;;;;;;25.20;7.27;;;;;;;2.21;92.95;102646.78;6509852;23;20004;-77
2022/01/20 08:09:30;;;;;;;27.80;7.70;;;;;;;2.23;92.70;102652.00;6509254;23;20095;-77
2022/01/20 08:12:02;;;;;;;26.67;5.27;;;;;;;2.25;93.12;102658.97;6508603;23;20054;-78
2022/01/20 08:14:33;;;;;;;28.75;5.85;;;;;;;2.24;93.32;102664.03;6508311;23;20004;-78
2022/01/20 08:17:07;;;;;;;23.33;6.07;;;;;;;2.22;93.59;102668.25;6507831;23;20000;-77
2022/01/20 08:19:38;;;;;;;30.67;6.47;;;;;;;2.26;93.45;102665.91;6480464;23;20011;-77
2022/01/20 08:22:10;;;;;;;20.63;6.60;;;;;;;2.27;93.77;102683.13;6508175;23;20008;-76
2022/01/20 08:24:41;;;;;;;29.88;6.07;;;;;;;2.27;93.98;102684.78;6507745;23;20011;-76
2022/01/20 08:27:13;;;;;;;29.63;5.70;;;;;;;2.26;94.79;102683.03;6508286;23;20075;-78
2022/01/20 08:29:45;;;;;;;28.17;6.37;;;;;;;2.27;94.91;102690.84;6507494;23;20007;-76
2022/01/20 08:32:16;;;;;;;20.00;5.72;;;;;;;2.27;94.92;102688.28;6507693;23;20023;-78
2022/01/20 08:34:48;;;;;;;18.40;5.43;;;;;;;2.26;95.55;102680.47;6479209;23;20405;-78
2022/01/20 08:37:19;;;;;;;26.10;5.20;;;;;;;2.27;95.61;102687.38;6480468;23;20008;-78
2022/01/20 08:39:51;;;;;;;33.63;6.90;;;;;;;2.29;95.22;102684.09;6508554;23;20004;-77
2022/01/20 08:42:23;;;;;;;24.57;5.70;;;;;;;2.31;95.36;102695.31;6508072;23;20018;-77
2022/01/20 08:44:55;;;;;;;30.17;6.15;;;;;;;2.33;94.05;102693.72;6509014;23;20004;-78
2022/01/20 08:47:26;;;;;;;23.83;5.60;;;;;;;2.31;93.36;102694.47;6507818;23;20030;-78
2022/01/20 08:49:59;;;;;;;24.13;5.07;;;;;;;2.33;93.67;102703.13;6507391;23;20114;-78
2022/01/20 08:52:31;;;;;;;15.40;4.25;;;;;;;2.31;91.99;102703.06;6507334;23;20000;-77
2022/01/20 08:55:03;;;;;;;;;;;;;;;2.39;92.98;102703.44;6479112;23;20038;-78
2022/01/20 08:57:35;;;;;;;27.90;5.20;;;;;;;2.35;90.50;102705.00;6505472;23;19907;-77
2022/01/20 09:00:08;;;;;;;14.97;3.67;;;;;;;2.38;90.24;102706.81;6506369;23;20496;-78
2022/01/20 09:02:39;;;;;;;;;;;;;;;2.45;89.51;102708.94;6506051;23;20227;-76
2022/01/20 09:05:11;;;;;;;19.15;3.90;;;;;;;2.50;87.98;102715.19;6505778;23;20332;-76
2022/01/20 09:07:42;;;;;;;20.27;4.53;;;;;;;2.60;87.67;102720.81;6507887;23;20003;-77
2022/01/20 09:10:23;;;;;;;14.53;3.57;;;;;;;2.59;86.89;102716.47;6508741;23;20000;-77
2022/01/20 09:15:44;;;;;;;17.08;4.40;;;;;;;2.62;87.13;102735.50;6509475;23;20406;-77
2022/01/20 09:18:18;;;;;;;18.30;4.60;;;;;;;2.67;86.96;102743.47;6508932;22;19996;-77
2022/01/20 09:20:51;;;;;;;26.23;5.80;;;;;;;2.72;87.19;102757.47;6483114;23;20004;-77
2022/01/20 09:23:22;;;;;;;12.45;3.67;;;;;;;2.70;85.87;102754.81;6481728;23;20004;-78
2022/01/20 09:25:55;;;;;;;12.77;3.10;;;;;;;2.72;86.71;102753.22;6508907;23;20050;-77
2022/01/20 09:28:26;;;;;;;21.25;3.92;;;;;;;2.76;86.16;102755.97;6510319;23;20321;-77
2022/01/20 09:31:00;;;;;;;23.67;4.40;;;;;;;2.80;86.68;102745.91;6509313;23;20007;-76
2022/01/20 09:33:32;;;;;;;21.23;4.32;;;;;;;2.81;86.27;102741.63;6509643;23;20053;-77
2022/01/20 09:36:09;;;;;;;16.67;4.93;;;;;;;2.77;85.51;102739.69;6516599;23;20036;-78
2022/01/20 09:38:42;;;;;;;16.27;5.88;;;;;;;2.62;85.13;102747.50;6516429;23;20008;-76
2022/01/20 09:41:14;;;;;;;15.23;5.13;;;;;;;2.61;85.85;102740.59;6515005;22;20004;-77
2022/01/20 09:43:45;;;;;;;20.08;4.60;;;;;;;3.01;85.79;102733.22;6513373;23;20004;-77
2022/01/20 09:46:17;;;;;;;18.97;3.90;;;;;;;3.56;84.94;102724.69;6513351;23;20077;-79
2022/01/20 09:48:48;;;;;;;15.70;3.90;;;;;;;3.75;81.95;102738.41;6484080;23;20075;-76
2022/01/20 09:51:19;;;;;;;14.80;4.90;;;;;;;3.46;81.52;102743.06;6506884;23;20012;-76
2022/01/20 09:53:51;;;;;;;21.80;4.73;;;;;;;3.44;82.85;102747.28;6506417;23;20011;-77
2022/01/20 09:56:23;;;;;;;20.23;3.47;;;;;;;3.43;82.95;102750.66;6506930;23;20027;-78
2022/01/20 09:58:54;;;;;;;15.07;4.77;;;;;;;3.44;83.28;102763.63;6506710;23;20000;-76
2022/01/20 10:01:44;;;;;;;17.23;3.83;;;;;;;3.49;82.86;102773.28;6507040;23;20008;-77
2022/01/20 10:04:29;;;;;;;16.98;3.95;;;;;;;3.36;82.12;102785.56;6506705;23;20015;-78
2022/01/20 10:07:11;;;;;;;20.23;5.32;;;;;;;3.26;83.16;102788.53;6506305;23;20058;-78
2022/01/20 10:09:47;;;;;;;15.48;4.07;;;;;;;3.32;82.85;102798.25;6506040;23;20012;-77
2022/01/20 10:12:19;;;;;;;15.25;4.70;;;;;;;3.59;81.22;102791.88;6506087;23;20039;-78
2022/01/20 10:14:57;;;;;;;13.40;3.42;;;;;;;4.15;82.03;102784.13;6478033;23;20544;-78
2022/01/20 10:17:30;;;;;;;13.95;3.67;;;;;;;4.54;77.84;102792.81;6505613;23;20058;-77
2022/01/20 10:20:07;;;;;;;12.77;3.58;;;;;;;4.64;76.00;102786.34;6505674;23;20063;-78
2022/01/20 10:22:40;;;;;;;14.65;3.55;;;;;;;4.74;74.63;102788.50;6505461;23;20054;-78
2022/01/20 10:25:14;;;;;;;14.13;2.92;;;;;;;4.93;74.14;102797.94;6505096;23;20008;-76
2022/01/20 10:27:52;;;;;;;18.83;4.80;;;;;;;4.93;72.89;102804.81;6505360;23;20000;-77
2022/01/20 10:30:27;;;;;;;13.40;3.67;;;;;;;5.19;71.49;102802.44;6504796;22;20090;-75
2022/01/20 10:33:00;;;;;;;14.50;3.80;;;;;;;5.53;69.15;102798.66;6505329;23;20038;-77
2022/01/20 10:35:34;;;;;;;17.15;4.32;;;;;;;5.79;69.11;102800.56;6505438;23;20345;-75
2022/01/20 10:38:12;;;;;;;14.70;3.90;;;;;;;5.53;66.82;102806.41;6506130;23;20000;-77
2022/01/20 10:40:51;;;;;;;14.25;4.07;;;;;;;6.16;68.27;102807.19;6505913;23;20000;-77
2022/01/20 10:43:24;;;;;;;13.55;3.70;;;;;;;6.51;64.14;102817.13;6506265;23;20008;-78
2022/01/20 10:46:10;;;;;;;15.43;4.22;;;;;;;6.68;63.36;102818.63;6505545;23;20004;-77
2022/01/20 10:48:43;;;;;;;13.25;3.83;;;;;;;6.72;60.17;102812.69;6505230;23;20321;-77
2022/01/20 10:51:19;;;;;;;13.27;4.07;;;;;;;6.97;62.23;102817.88;6505150;23;20452;-75
2022/01/20 10:54:09;;;;;;;16.65;4.25;;;;;;;5.97;63.68;102817.66;6504342;23;20004;-76
2022/01/20 10:56:47;;;;;;;15.82;3.70;;;;;;;5.38;63.64;102822.19;6497989;23;20496;-76
2022/01/20 10:59:20;;;;;;;26.40;4.60;;;;;;;5.02;64.14;102814.66;6505927;23;20007;-77
2022/01/20 11:02:20;;;;;;;;;;;;;;;4.98;65.58;102808.47;6505910;23;20054;-77
2022/01/20 11:04:52;;;;;;;16.17;4.88;;;;;;;5.13;67.83;102807.34;6410001;23;19915;-77
2022/01/20 11:07:25;;;;;;;15.17;4.10;;;;;;;5.03;66.53;102806.09;6385156;23;20013;-78
2022/01/20 11:10:01;;;;;;;21.40;5.85;;;;;;;4.70;66.29;102815.03;6409187;23;20001;-80
2022/01/20 11:12:34;;;;;;;17.50;3.72;;;;;;;4.72;67.83;102807.34;6408684;23;20052;-76
2022/01/20 11:15:08;;;;;;;;;;;;;;;4.98;67.87;102818.81;6409694;23;20142;-77
2022/01/20 11:17:42;;;;;;;24.45;4.35;;;;;;;4.72;67.38;102813.38;6408566;23;19960;-77
2022/01/20 11:20:20;;;;;;;21.20;4.40;;;;;;;4.70;67.32;102816.72;6384106;23;20033;-77
2022/01/20 11:23:01;;;;;;;17.38;3.53;;;;;;;4.67;67.28;102819.16;6406984;23;20447;-76
2022/01/20 11:25:35;;;;;;;18.88;4.75;;;;;;;4.60;67.21;102822.28;6407810;23;20013;-76
2022/01/20 11:28:18;;;;;;;19.15;4.85;;;;;;;5.13;65.43;102818.56;6407218;23;20009;-77
2022/01/20 11:30:58;;;;;;;17.20;4.10;;;;;;;7.01;64.05;102810.25;6406756;23;20076;-78
2022/01/20 11:33:43;;;;;;;17.00;4.45;;;;;;;7.83;59.08;102805.13;6407732;23;20020;-78
2022/01/20 11:36:31;;;;;;;18.98;4.93;;;;;;;7.17;59.14;102811.66;6382917;23;20017;-77
2022/01/20 11:39:04;;;;;;;17.95;5.30;;;;;;;6.26;60.36;102805.81;6377751;23;20010;-77
2022/01/20 11:41:49;;;;;;;23.30;5.43;;;;;;;5.93;62.24;102800.25;6431187;23;20016;-78
2022/01/20 11:44:26;;;;;;;18.55;6.07;;;;;;;5.64;62.57;102807.72;6442298;23;20047;-77
2022/01/20 11:47:07;;;;;;;14.35;3.97;;;;;;;5.32;64.33;102812.47;6441448;23;20005;-76
2022/01/20 11:49:40;;;;;;;15.85;4.47;;;;;;;5.37;65.00;102800.59;6441172;23;20005;-76
2022/01/20 11:52:22;;;;;;;;;;;;;;;5.37;64.48;102808.38;6441232;23;20039;-76
2022/01/20 11:54:54;;;;;;;11.90;4.38;;;;;;;5.00;65.83;102811.13;6441121;23;19908;-77
2022/01/20 11:57:30;;;;;;;14.10;3.70;;;;;;;4.94;65.56;102798.81;6441621;23;20012;-77
2022/01/20 12:00:16;;;;;;;19.38;4.07;;;;;;;4.93;65.82;102804.81;6441052;23;20005;-77
2022/01/20 12:02:49;;;;;;;15.27;3.20;;;;;;;4.91;66.40;102801.25;6441118;23;20339;-76
2022/01/20 12:05:31;;;;;;;17.02;3.45;;;;;;;5.08;66.60;102814.91;6441203;23;20356;-75
2022/01/20 12:08:18;;;;;;;12.77;3.60;;;;;;;4.93;66.47;102815.16;6440779;23;20111;-76
2022/01/20 12:11:08;;;;;;;18.17;4.82;;;;;;;5.05;66.64;102804.44;6441299;23;20005;-76
2022/01/20 12:13:48;;;;;;;15.88;3.50;;;;;;;4.94;65.72;102796.22;6440516;23;20005;-76
2022/01/20 12:16:22;;;;;;;14.50;4.72;;;;;;;6.22;63.86;102783.25;6440502;23;20421;-76
2022/01/20 12:18:56;;;;;;;11.57;3.60;;;;;;;7.96;58.83;102781.28;6441412;23;20009;-76
2022/01/20 12:21:32;;;;;;;13.90;3.83;;;;;;;8.94;54.72;102779.72;6441228;23;20140;-76
2022/01/20 12:24:04;;;;;;;15.20;4.25;;;;;;;9.04;52.51;102778.25;6441430;23;20028;-75
2022/01/20 12:26:36;;;;;;;11.57;3.58;;;;;;;8.11;55.00;102770.47;6441495;23;20001;-76
2022/01/20 12:29:09;;;;;;;19.03;4.17;;;;;;;7.12;57.42;102776.91;6441043;23;20068;-77
2022/01/20 12:31:52;;;;;;;19.52;3.38;;;;;;;6.26;59.92;102773.88;6440751;23;20043;-77
2022/01/20 12:34:23;;;;;;;11.82;3.75;;;;;;;5.67;62.13;102781.97;6444957;23;20013;-78
2022/01/20 12:36:57;;;;;;;11.17;3.97;;;;;;;5.28;62.73;102789.88;6504002;23;20007;-76
2022/01/20 12:39:32;;;;;;;12.95;3.22;;;;;;;5.08;65.25;102796.81;6504853;23;20007;-75
2022/01/20 12:42:10;;;;;;;11.75;3.00;;;;;;;4.93;64.50;102799.63;6504477;23;20091;-77
2022/01/20 12:44:50;;;;;;;14.65;4.13;;;;;;;5.06;65.89;102791.56;6507280;23;20011;-78
2022/01/20 12:47:28;;;;;;;12.00;3.58;;;;;;;5.05;66.27;102788.94;6505716;23;20008;-77
2022/01/20 12:50:01;;;;;;;9.95;2.97;;;;;;;4.83;65.63;102789.72;6506315;23;20299;-76
2022/01/20 12:52:32;;;;;;;;;;;;;;;4.71;66.37;102785.78;6506389;23;20457;-77
2022/01/20 12:55:05;;;;;;;13.45;4.10;;;;;;;4.42;68.06;102783.63;6505732;23;19907;-78
2022/01/20 12:57:36;;;;;;;18.00;3.38;;;;;;;5.15;67.00;102788.47;6505719;23;20050;-76
2022/01/20 13:00:09;;;;;;;12.47;3.73;;;;;;;6.57;62.52;102770.72;6504267;23;20039;-76
2022/01/20 13:02:40;;;;;;;11.38;4.03;;;;;;;8.24;58.15;102776.91;6505270;23;20011;-77
2022/01/20 13:05:12;;;;;;;11.90;3.00;;;;;;;8.35;55.43;102785.88;6505189;23;20004;-77
2022/01/20 13:07:51;;;;;;;13.47;4.13;;;;;;;8.83;55.02;102771.63;6505204;23;20004;-75